createdAt,value
2023-04-16T00:00:49.154Z,151149.09
2023-04-16T00:03:56.645Z,151149.09
2023-04-16T00:06:24.689Z,151154.28
2023-04-16T00:08:54.045Z,151146.50
2023-04-16T00:11:25.450Z,151154.28
2023-04-16T00:13:53.413Z,151162.09
2023-04-16T00:16:24.090Z,151151.69
2023-04-16T00:18:52.026Z,151169.84
2023-04-16T00:21:20.070Z,151164.69
2023-04-16T00:23:47.908Z,151142.63
2023-04-16T00:26:17.170Z,151165.97
2023-04-16T00:28:46.546Z,151149.09
2023-04-16T00:31:14.479Z,151151.69
2023-04-16T00:33:43.875Z,151138.75
2023-04-16T00:42:43.560Z,151123.25
2023-04-16T00:45:12.767Z,151120.66
2023-04-16T00:47:40.799Z,151107.72
2023-04-16T00:50:19.221Z,151118.06
2023-04-16T00:53:09.010Z,151097.38
2023-04-16T00:55:38.367Z,151115.47
2023-04-16T00:58:08.299Z,151131.03
2023-04-16T01:00:36.377Z,151119.38
2023-04-16T01:03:06.130Z,151133.59
2023-04-16T01:05:34.966Z,151127.13
2023-04-16T01:08:13.051Z,151107.72
2023-04-16T01:11:11.344Z,151087.00
2023-04-16T01:22:32.528Z,151115.47
2023-04-16T01:25:00.881Z,151129.72
2023-04-16T01:27:31.422Z,151120.66
2023-04-16T01:29:59.540Z,151136.19
2023-04-16T01:32:33.513Z,151146.50
2023-04-16T01:35:03.471Z,151141.31
2023-04-16T01:37:36.039Z,151142.63
2023-04-16T01:40:04.192Z,151131.03
2023-04-16T01:42:32.286Z,151128.44
2023-04-16T01:45:02.342Z,151125.84
2023-04-16T01:47:31.345Z,151127.13
2023-04-16T01:50:04.820Z,151123.25
2023-04-16T01:52:34.170Z,151127.13
2023-04-16T01:55:02.114Z,151123.25
2023-04-16T01:57:30.405Z,151129.72
2023-04-16T01:59:59.538Z,151111.59
2023-04-16T02:02:29.220Z,151101.25
2023-04-16T02:05:00.012Z,151053.41
2023-04-16T02:07:29.231Z,151035.28
2023-04-16T02:15:38.759Z,151031.41
2023-04-16T02:21:48.587Z,151045.63
2023-04-16T02:24:40.954Z,151027.53
2023-04-16T02:27:26.470Z,151050.81
2023-04-16T02:29:54.434Z,151053.41
2023-04-16T02:32:22.390Z,151067.63
2023-04-16T02:37:53.895Z,151063.75
2023-04-16T02:40:21.850Z,151063.75
2023-04-16T02:43:33.833Z,151063.75
2023-04-16T02:46:03.164Z,151056.00
2023-04-16T02:48:35.364Z,151056.00
2023-04-16T02:51:03.420Z,151066.34
2023-04-16T02:53:47.968Z,151065.06
2023-04-16T02:56:15.968Z,151062.47
2023-04-16T02:58:43.915Z,151058.59
2023-04-16T03:01:14.083Z,151049.53
2023-04-16T03:03:42.063Z,151052.13
2023-04-16T03:06:10.059Z,151050.81
2023-04-16T03:08:38.158Z,151043.06
2023-04-16T03:17:17.497Z,151056.00
2023-04-16T03:19:45.675Z,151061.19
2023-04-16T03:22:13.732Z,151045.63
2023-04-16T03:34:02.908Z,151046.94
2023-04-16T03:37:06.177Z,151027.53
2023-04-16T03:39:34.506Z,151004.28
2023-04-16T03:42:08.120Z,151019.81
2023-04-16T03:44:38.050Z,151019.81
2023-04-16T03:47:06.188Z,151022.41
2023-04-16T03:49:35.852Z,150986.16
2023-04-16T03:52:08.418Z,151019.81
2023-04-16T03:54:42.780Z,150999.09
2023-04-16T03:57:10.643Z,150984.88
2023-04-16T03:59:38.790Z,150991.34
2023-04-16T04:02:06.836Z,150991.34
2023-04-16T04:04:36.283Z,150995.22
2023-04-16T04:07:04.319Z,150983.56
2023-04-16T04:09:32.404Z,150990.03
2023-04-16T04:12:00.372Z,150983.56
2023-04-16T04:14:28.995Z,150983.56
2023-04-16T04:16:56.749Z,150986.16
2023-04-16T04:19:24.896Z,150975.81
2023-04-16T04:21:54.191Z,151006.88
2023-04-16T04:24:22.223Z,150979.69
2023-04-16T04:26:50.123Z,150988.75
2023-04-16T04:29:18.336Z,150978.41
2023-04-16T04:34:44.077Z,150965.50
2023-04-16T04:44:17.792Z,150999.09
2023-04-16T04:46:46.392Z,151009.44
2023-04-16T04:49:14.308Z,150988.75
2023-04-16T04:51:42.313Z,150995.22
2023-04-16T04:57:08.326Z,150991.34
2023-04-16T04:59:39.835Z,151001.69
2023-04-16T05:02:07.816Z,150997.81
2023-04-16T05:04:35.841Z,151006.88
2023-04-16T05:07:03.786Z,151013.34
2023-04-16T05:09:31.864Z,151035.28
2023-04-16T05:12:01.378Z,151032.69
2023-04-16T05:14:30.333Z,151024.97
2023-04-16T05:17:02.432Z,151039.16
2023-04-16T05:19:31.545Z,151035.28
2023-04-16T05:22:00.090Z,151058.59
2023-04-16T05:24:28.339Z,151048.22
2023-04-16T05:27:04.822Z,151035.28
2023-04-16T05:29:32.754Z,151027.53
2023-04-16T05:32:02.315Z,151045.63
2023-04-16T05:34:31.508Z,151013.34
2023-04-16T05:37:01.937Z,151056.00
2023-04-16T05:39:30.468Z,151068.94
2023-04-16T05:41:58.598Z,151061.19
2023-04-16T05:44:27.071Z,151057.28
2023-04-16T05:46:55.479Z,151048.22
2023-04-16T05:49:24.935Z,151063.75
2023-04-16T05:51:55.949Z,151070.22
2023-04-16T05:54:24.368Z,151040.47
2023-04-16T05:56:54.416Z,151021.09
2023-04-16T05:59:22.334Z,151013.34
2023-04-16T06:01:50.404Z,151022.41
2023-04-16T06:04:20.605Z,151024.97
2023-04-16T06:06:49.910Z,151039.16
2023-04-16T06:09:18.981Z,151035.28
2023-04-16T06:11:47.228Z,151012.03
2023-04-16T06:14:15.349Z,151009.44
2023-04-16T06:16:43.271Z,151068.94
2023-04-16T06:19:11.326Z,151084.41
2023-04-16T06:21:39.744Z,151120.66
2023-04-16T06:24:09.181Z,151080.59
2023-04-16T06:26:37.478Z,151097.38
2023-04-16T06:29:05.575Z,151118.06
2023-04-16T06:31:34.750Z,151141.31
2023-04-16T06:34:02.670Z,151112.91
2023-04-16T06:36:31.317Z,151111.59
2023-04-16T06:38:59.282Z,151149.09
2023-04-16T06:41:28.772Z,151125.84
2023-04-16T06:43:56.989Z,151116.78
2023-04-16T06:46:24.905Z,151147.81
2023-04-16T06:48:53.039Z,151138.75
2023-04-16T06:51:21.174Z,151168.56
2023-04-16T06:53:50.023Z,151200.88
2023-04-16T06:56:17.996Z,151208.66
2023-04-16T06:58:47.478Z,151212.53
2023-04-16T07:01:15.765Z,151259.13
2023-04-16T07:03:44.133Z,151281.13
2023-04-16T07:06:12.693Z,151275.94
2023-04-16T07:08:40.638Z,151322.53
2023-04-16T07:11:08.660Z,151392.44
2023-04-16T07:13:36.670Z,151414.41
2023-04-16T07:16:06.567Z,151461.06
2023-04-16T07:18:34.510Z,151420.88
2023-04-16T07:21:02.391Z,151417.00
2023-04-16T07:23:30.425Z,151439.03
2023-04-16T07:25:59.891Z,151436.44
2023-04-16T07:28:27.771Z,151389.84
2023-04-16T07:30:55.947Z,151407.97
2023-04-16T07:33:26.046Z,151470.09
2023-04-16T07:35:55.125Z,151481.75
2023-04-16T07:38:23.103Z,151433.84
2023-04-16T07:40:52.234Z,151366.53
2023-04-16T07:43:21.272Z,151431.25
2023-04-16T07:45:49.198Z,151442.91
2023-04-16T07:48:17.140Z,151494.72
2023-04-16T07:50:54.623Z,151475.25
2023-04-16T07:53:28.739Z,151540.03
2023-04-16T07:55:57.184Z,151576.31
2023-04-16T07:58:35.695Z,151580.16
2023-04-16T08:01:04.038Z,151660.56
2023-04-16T08:03:34.240Z,151612.56
2023-04-16T08:06:03.792Z,151609.97
2023-04-16T08:08:31.921Z,151648.88
2023-04-16T08:11:00.797Z,151573.72
2023-04-16T08:13:28.793Z,151600.91
2023-04-16T08:15:56.803Z,151595.72
2023-04-16T08:18:25.243Z,151604.78
2023-04-16T08:20:53.398Z,151664.44
2023-04-16T08:23:23.909Z,151766.81
2023-04-16T08:25:53.131Z,151730.53
2023-04-16T08:28:22.894Z,151729.25
2023-04-16T08:30:51.119Z,151669.63
2023-04-16T08:33:21.177Z,151720.16
2023-04-16T08:35:49.137Z,151788.88
2023-04-16T08:38:16.973Z,151788.88
2023-04-16T08:40:58.018Z,151826.44
2023-04-16T08:43:27.651Z,151856.22
2023-04-16T08:45:57.804Z,151953.50
2023-04-16T08:48:26.444Z,151972.94
2023-04-16T08:50:55.647Z,152089.75
2023-04-16T08:53:31.573Z,152162.41
2023-04-16T08:56:04.889Z,152281.81
2023-04-16T08:58:35.598Z,152403.94
2023-04-16T09:01:04.629Z,152466.25
2023-04-16T09:03:36.169Z,152385.69
2023-04-16T09:06:05.838Z,152437.69
2023-04-16T09:08:35.826Z,152488.34
2023-04-16T09:11:09.338Z,152640.34
2023-04-16T09:13:38.917Z,152533.78
2023-04-16T09:16:08.580Z,152642.94
2023-04-16T09:18:36.517Z,152683.28
2023-04-16T09:21:05.703Z,152672.88
2023-04-16T09:23:34.206Z,152680.66
2023-04-16T09:26:02.476Z,152666.38
2023-04-16T09:28:42.201Z,152580.56
2023-04-16T09:31:12.453Z,152681.97
2023-04-16T09:33:40.874Z,152640.34
2023-04-16T09:36:08.802Z,152867.91
2023-04-16T09:38:50.790Z,152749.56
2023-04-16T09:41:19.207Z,152802.88
2023-04-16T09:43:56.716Z,153172.44
2023-04-16T09:46:25.717Z,152880.91
2023-04-16T09:48:53.692Z,152921.22
2023-04-16T09:51:21.802Z,152891.22
2023-04-16T09:53:53.817Z,151459.47
2023-04-16T09:56:26.194Z,151628.38
2023-04-16T09:59:04.472Z,151383.16
2023-04-16T10:01:39.238Z,152195.03
2023-04-16T10:04:43.884Z,104173.19
2023-04-16T10:07:45.722Z,86579.66
2023-04-16T10:10:27.215Z,83694.19
2023-04-16T10:12:58.902Z,76176.75
2023-04-16T10:15:28.870Z,72141.28
2023-04-16T10:18:00.322Z,63936.00
2023-04-16T10:20:30.203Z,64935.22
2023-04-16T10:22:58.728Z,65822.44
2023-04-16T10:25:27.622Z,61480.50
2023-04-16T10:27:57.926Z,60228.84
2023-04-16T10:30:28.803Z,56979.78
2023-04-16T10:33:00.272Z,62069.81
2023-04-16T10:35:28.842Z,41144.44
2023-04-16T10:37:58.653Z,25492.63
2023-04-16T10:40:29.457Z,20304.03
2023-04-16T10:42:59.525Z,-20303.41
2023-04-16T10:45:39.169Z,-20287.41
2023-04-16T10:48:10.060Z,-20282.69
2023-04-16T10:50:39.720Z,-20294.50
2023-04-16T10:53:22.112Z,-20275.44
2023-04-16T10:56:15.497Z,-20270.16
2023-04-16T10:58:44.015Z,-20275.03
2023-04-16T11:01:16.948Z,-20285.47
2023-04-16T11:03:48.169Z,-20287.41
2023-04-16T11:06:18.665Z,-20299.50
2023-04-16T11:08:54.507Z,-20324.41
2023-04-16T11:11:24.629Z,-20308.41
2023-04-16T11:13:58.474Z,-20305.78
2023-04-16T11:16:30.501Z,-20277.38
2023-04-16T11:19:01.350Z,-20299.09
2023-04-16T11:21:29.304Z,-20301.75
2023-04-16T11:23:59.230Z,-20289.78
2023-04-16T11:26:29.186Z,-20294.38
2023-04-16T11:28:58.007Z,-20272.25
2023-04-16T11:31:30.501Z,-20256.22
2023-04-16T11:34:01.056Z,47548.38
2023-04-16T11:36:29.289Z,42817.66
2023-04-16T11:39:04.472Z,60627.75
2023-04-16T11:41:32.622Z,95014.09
2023-04-16T11:44:01.404Z,-14475.69
2023-04-16T11:46:41.387Z,41043.59
2023-04-16T11:49:09.878Z,8221.53
2023-04-16T11:51:41.630Z,16694.25
2023-04-16T11:54:12.042Z,2355.00
2023-04-16T11:56:46.451Z,-16408.75
2023-04-16T11:59:22.895Z,-8870.34
2023-04-16T12:01:56.661Z,9295.75
2023-04-16T12:04:26.817Z,1234.88
2023-04-16T12:07:13.468Z,-20300.91
2023-04-16T12:09:43.088Z,-20295.63
2023-04-16T12:12:29.691Z,-20290.75
2023-04-16T12:15:00.084Z,-20304.94
2023-04-16T12:17:29.481Z,-20315.22
2023-04-16T12:19:59.897Z,-20304.09
2023-04-16T12:22:30.383Z,-20287.13
2023-04-16T12:25:02.909Z,-20300.78
2023-04-16T12:27:45.568Z,-20271.81
2023-04-16T12:30:16.532Z,-20274.03
2023-04-16T12:32:47.941Z,-20294.50
2023-04-16T12:35:31.048Z,-20289.91
2023-04-16T12:37:58.885Z,113558.03
2023-04-16T12:40:28.391Z,153231.03
2023-04-16T12:42:59.018Z,153130.75
2023-04-16T12:45:28.342Z,153126.88
2023-04-16T12:47:58.807Z,153195.84
2023-04-16T12:50:28.480Z,153059.19
2023-04-16T12:52:58.056Z,153267.44
2023-04-16T12:55:26.456Z,153178.94
2023-04-16T12:57:54.328Z,153251.81
2023-04-16T13:00:23.128Z,153133.34
2023-04-16T13:02:51.198Z,153111.25
2023-04-16T13:05:20.763Z,153207.56
2023-04-16T13:07:49.745Z,153070.94
2023-04-16T13:10:17.846Z,153356.03
2023-04-16T13:12:47.556Z,153535.81
2023-04-16T13:15:15.890Z,152955.09
2023-04-16T13:17:50.367Z,153095.63
2023-04-16T13:20:24.409Z,152931.66
2023-04-16T13:22:52.962Z,153073.53
2023-04-16T13:25:22.972Z,153009.72
2023-04-16T13:27:53.231Z,152853.59
2023-04-16T13:30:21.209Z,152897.84
2023-04-16T13:32:49.449Z,152783.41
2023-04-16T13:35:18.124Z,152923.84
2023-04-16T13:37:47.680Z,152906.97
2023-04-16T13:40:15.942Z,152853.59
2023-04-16T13:45:29.370Z,152882.22
2023-04-16T13:47:57.637Z,152832.81
2023-04-16T13:50:25.801Z,152931.66
2023-04-16T13:52:55.622Z,153014.97
2023-04-16T13:55:23.795Z,152996.69
2023-04-16T13:57:57.694Z,152978.47
2023-04-16T14:00:27.788Z,152984.97
2023-04-16T14:02:57.126Z,152983.69
2023-04-16T14:05:27.141Z,152806.78
2023-04-16T14:07:56.926Z,152825.00
2023-04-16T14:10:25.680Z,152879.63
2023-04-16T14:12:54.334Z,152848.44
2023-04-16T14:15:23.582Z,153009.72
2023-04-16T14:17:52.947Z,152986.28
2023-04-16T14:20:24.330Z,153064.41
2023-04-16T14:22:52.569Z,152962.88
2023-04-16T14:25:22.239Z,153059.19
2023-04-16T14:27:50.461Z,152795.13
2023-04-16T14:30:18.868Z,152861.41
2023-04-16T14:32:46.953Z,152930.34
2023-04-16T14:35:18.100Z,152961.59
2023-04-16T14:37:46.609Z,152775.59
2023-04-16T14:40:14.995Z,152819.78
2023-04-16T14:42:44.657Z,152900.44
2023-04-16T14:45:13.132Z,152932.94
2023-04-16T14:47:46.069Z,153090.41
2023-04-16T14:50:14.804Z,153126.88
2023-04-16T14:52:44.377Z,153369.06
2023-04-16T14:55:12.724Z,153287.06
2023-04-16T14:57:41.605Z,153400.34
2023-04-16T15:00:13.695Z,153541.03
2023-04-16T15:02:43.057Z,153315.69
2023-04-16T15:05:17.447Z,153401.66
2023-04-16T15:07:45.452Z,153621.91
2023-04-16T15:10:13.747Z,153679.25
2023-04-16T15:12:41.917Z,153839.69
2023-04-16T15:15:12.270Z,153963.63
2023-04-16T15:17:40.661Z,154023.66
2023-04-16T15:20:11.028Z,153689.66
2023-04-16T15:22:39.353Z,153784.88
2023-04-16T15:25:10.359Z,153744.41
2023-04-16T15:27:39.165Z,153551.53
2023-04-16T15:30:08.730Z,153692.25
2023-04-16T15:32:38.594Z,153822.72
2023-04-16T15:35:11.695Z,153707.94
2023-04-16T15:37:39.791Z,154019.72
2023-04-16T15:40:10.839Z,153581.47
2023-04-16T15:42:38.863Z,153707.94
2023-04-16T15:45:08.767Z,153499.34
2023-04-16T15:47:53.649Z,153624.53
2023-04-16T15:50:29.275Z,153481.09
2023-04-16T15:52:57.553Z,153335.22
2023-04-16T15:55:26.299Z,153152.88
2023-04-16T15:57:56.698Z,153344.34
2023-04-16T16:00:34.762Z,153504.56
2023-04-16T16:03:04.449Z,153349.56
2023-04-16T16:05:33.895Z,153220.59
2023-04-16T16:08:04.846Z,153094.31
2023-04-16T16:10:33.540Z,152939.47
2023-04-16T16:13:05.355Z,152865.31
2023-04-16T16:15:33.815Z,153009.72
2023-04-16T16:18:08.838Z,152832.81
2023-04-16T16:20:40.598Z,152778.22
2023-04-16T16:23:14.914Z,152606.56
2023-04-16T16:26:07.848Z,152681.97
2023-04-16T16:28:37.629Z,152791.22
2023-04-16T16:31:07.366Z,152619.59
2023-04-16T16:33:42.635Z,152623.50
2023-04-16T16:36:12.368Z,152579.25
2023-04-16T16:38:41.142Z,152615.69
2023-04-16T16:41:10.408Z,152575.38
2023-04-16T16:43:39.738Z,152474.03
2023-04-16T16:46:13.705Z,152371.41
2023-04-16T16:48:44.111Z,143243.31
2023-04-16T16:51:12.545Z,138145.91
2023-04-16T16:53:44.256Z,141493.13
2023-04-16T16:56:12.329Z,118128.78
2023-04-16T16:58:40.458Z,45951.56
2023-04-16T17:01:10.568Z,54912.22
2023-04-16T17:03:39.845Z,79681.34
2023-04-16T17:06:09.466Z,130796.41
2023-04-16T17:08:37.588Z,148690.78
2023-04-16T17:11:08.552Z,151523.13
2023-04-16T17:13:48.979Z,151731.84
2023-04-16T17:16:17.761Z,151699.41
2023-04-16T17:18:45.961Z,151660.56
2023-04-16T17:21:16.570Z,151634.56
2023-04-16T17:23:46.699Z,151607.41
2023-04-16T17:26:15.219Z,151617.75
2023-04-16T17:28:46.638Z,151551.69
2023-04-16T17:31:15.079Z,151540.03
2023-04-16T17:33:43.465Z,151488.22
2023-04-16T17:36:28.837Z,151521.94
2023-04-16T17:39:02.504Z,151528.34
2023-04-16T17:41:30.591Z,151476.56
2023-04-16T17:44:01.190Z,151454.59
2023-04-16T17:46:29.224Z,151441.63
2023-04-16T17:48:58.033Z,151422.19
2023-04-16T17:51:27.958Z,151389.84
2023-04-16T17:53:56.355Z,151392.44
2023-04-16T17:56:25.842Z,151401.50
2023-04-16T17:58:54.019Z,151338.06
2023-04-16T18:01:23.179Z,151334.19
2023-04-16T18:03:53.100Z,151312.16
2023-04-16T18:06:21.177Z,151273.34
2023-04-16T18:08:49.445Z,151257.81
2023-04-16T18:12:05.712Z,151261.69
2023-04-16T18:14:40.659Z,151237.16
2023-04-16T18:17:08.791Z,151208.66
2023-04-16T18:19:39.444Z,151248.75
2023-04-16T18:22:10.574Z,151229.38
2023-04-16T18:24:38.391Z,151203.47
2023-04-16T18:27:10.584Z,151208.66
2023-04-16T18:32:22.522Z,151195.72
2023-04-16T18:34:51.670Z,151211.25
2023-04-16T18:37:19.845Z,151165.97
2023-04-16T18:39:47.804Z,151123.25
2023-04-16T18:42:17.268Z,151129.72
2023-04-16T18:44:45.353Z,151146.50
2023-04-16T18:47:15.110Z,151115.47
2023-04-16T18:49:43.178Z,151109.00
2023-04-16T18:52:11.244Z,151125.84
2023-04-16T18:54:40.866Z,151070.22
2023-04-16T18:57:10.430Z,151089.59
2023-04-16T18:59:40.733Z,151087.00
2023-04-16T19:02:10.091Z,151076.69
2023-04-16T19:04:39.502Z,151078.00
2023-04-16T19:07:07.459Z,151099.97
2023-04-16T19:09:35.708Z,151084.41
2023-04-16T19:12:05.822Z,151087.00
2023-04-16T19:14:35.082Z,151096.06
2023-04-16T19:17:04.478Z,151048.22
2023-04-16T19:19:34.160Z,151052.13
2023-04-16T19:22:02.301Z,151058.59
2023-04-16T19:24:31.885Z,151048.22
2023-04-16T19:27:04.587Z,151089.59
2023-04-16T19:29:34.117Z,151087.00
2023-04-16T19:32:06.494Z,151061.19
2023-04-16T19:34:36.768Z,151021.09
2023-04-16T19:37:25.119Z,151004.28
2023-04-16T19:39:54.942Z,150984.88
2023-04-16T19:42:23.629Z,151019.81
2023-04-16T19:44:52.933Z,151003.00
2023-04-16T19:47:22.594Z,150999.09
2023-04-16T19:49:50.738Z,151037.88
2023-04-16T19:52:19.719Z,150990.03
2023-04-16T19:54:50.585Z,150986.16
2023-04-16T19:57:18.656Z,151017.22
2023-04-16T19:59:46.929Z,151000.41
2023-04-16T20:02:14.998Z,150970.69
2023-04-16T20:04:44.837Z,150952.56
2023-04-16T20:07:22.520Z,150975.81
2023-04-16T20:09:53.726Z,150975.81
2023-04-16T20:12:29.777Z,150942.22
2023-04-16T20:14:58.746Z,150955.16
2023-04-16T20:17:26.842Z,150959.03
2023-04-16T20:20:10.744Z,150898.28
2023-04-16T20:22:38.794Z,150940.94
2023-04-16T20:25:08.968Z,150937.06
2023-04-16T20:27:38.003Z,150966.81
2023-04-16T20:30:07.335Z,150940.94
2023-04-16T20:32:39.790Z,150898.28
2023-04-16T20:35:12.958Z,150952.56
2023-04-16T20:37:55.747Z,150942.22
2023-04-16T20:40:24.261Z,150929.28
2023-04-16T20:42:52.354Z,150952.56
2023-04-16T20:45:25.380Z,150922.81
2023-04-16T20:48:02.405Z,150928.00
2023-04-16T20:50:32.863Z,150942.22
2023-04-16T20:53:08.790Z,150934.47
2023-04-16T20:55:38.165Z,150921.53
2023-04-16T20:58:07.437Z,150934.47
2023-04-16T21:00:36.693Z,150946.09
2023-04-16T21:03:05.282Z,150937.06
2023-04-16T21:05:35.111Z,150924.13
2023-04-16T21:09:10.775Z,150906.06
2023-04-16T21:11:37.327Z,150862.06
2023-04-16T21:14:07.023Z,150895.69
2023-04-16T21:16:36.376Z,150885.34
2023-04-16T21:19:06.039Z,150916.34
2023-04-16T21:21:47.455Z,150891.81
2023-04-16T21:24:16.747Z,150900.88
2023-04-16T21:26:45.896Z,150895.69
2023-04-16T21:29:14.445Z,150875.00
2023-04-16T21:31:42.551Z,150900.88
2023-04-16T21:34:10.936Z,150891.81
2023-04-16T21:36:39.988Z,150897.00
2023-04-16T21:39:09.593Z,150893.13
2023-04-16T21:41:38.742Z,150898.28
2023-04-16T21:44:07.992Z,150891.81
2023-04-16T21:46:35.944Z,150898.28
2023-04-16T21:49:04.381Z,150887.94
2023-04-16T21:51:34.297Z,150903.47
2023-04-16T21:54:02.627Z,150880.19
2023-04-16T21:57:03.679Z,150924.13
2023-04-16T21:59:37.511Z,150891.81
2023-04-16T22:02:06.476Z,150903.47
2023-04-16T22:04:39.636Z,150911.22
2023-04-16T22:07:15.188Z,150882.78
2023-04-16T22:09:45.678Z,150903.47
2023-04-16T22:12:17.100Z,150918.94
2023-04-16T22:15:01.876Z,150897.00
2023-04-16T22:17:33.449Z,150906.06
2023-04-16T22:21:14.723Z,150862.06
2023-04-16T22:23:43.185Z,150920.22
2023-04-16T22:26:13.328Z,150929.28
2023-04-16T22:28:43.934Z,150895.69
2023-04-16T22:31:19.358Z,150869.84
2023-04-16T22:33:52.101Z,150881.47
2023-04-16T22:36:21.989Z,150859.53
2023-04-16T22:38:50.168Z,150903.47
2023-04-16T22:41:19.269Z,150911.22
2023-04-16T22:43:50.087Z,150946.09
2023-04-16T22:46:22.367Z,150922.81
2023-04-16T22:48:51.970Z,150930.56
2023-04-16T22:51:21.526Z,150953.88
2023-04-16T22:53:49.523Z,150913.81
2023-04-16T22:56:18.570Z,150918.94
2023-04-16T22:58:49.384Z,150922.81
2023-04-16T23:01:20.807Z,150931.88
2023-04-16T23:03:49.316Z,150939.63
2023-04-16T23:06:17.484Z,150918.94
2023-04-16T23:08:45.502Z,150929.28
2023-04-16T23:11:13.560Z,150934.47
2023-04-16T23:13:42.827Z,150918.94
2023-04-16T23:16:12.481Z,150929.28
2023-04-16T23:18:40.605Z,150924.13
2023-04-16T23:21:09.538Z,150929.28
2023-04-16T23:23:37.955Z,150934.47
2023-04-16T23:26:06.405Z,150939.63
2023-04-16T23:28:34.450Z,150938.34
2023-04-16T23:31:04.113Z,150924.13
2023-04-16T23:33:34.777Z,150898.28
2023-04-16T23:36:04.246Z,150937.06
2023-04-16T23:38:32.419Z,150955.16
2023-04-16T23:41:00.599Z,150953.88
2023-04-16T23:43:28.724Z,150959.03
2023-04-16T23:45:56.889Z,150955.16
2023-04-16T23:48:24.927Z,150934.47
2023-04-16T23:50:54.553Z,150928.00
2023-04-16T23:53:22.610Z,150922.81
2023-04-16T23:55:50.898Z,150935.75
2023-04-16T23:58:18.901Z,150929.28
